Terminal Aerodrome Forecast
Issued by NWS

Home | Current Version | Previous Version | Text Only | Print | Product List | Glossary On
Versions: 1 2 3 4 5 6 7 8 9 10 11 12 13 14 15 16 17 18 19 20 21 22 23 24 25
000
FTUS43 KSGF 231134 AAA
TAFJLN
TAF AMD
KJLN 231134Z 2312/2412 16007KT P6SM BKN250
     FM231600 17011KT P6SM BKN250
     FM240200 18016G25KT P6SM FEW250 WS020/20045KT
     FM240600 20013G23KT P6SM SKC
     FM240900 23010KT P6SM FEW250=

USA.gov is the U.S. government's official web portal to all federal, state and local government web resources and services.